»·PEaware :: UAL1108 KPDX-KDEN

UAL1108 :: KPDX-KDEN

FLIGHT INFORMATION

Flight Status: Arrived
Operator:
United Airlines
More flights by this operator :: More flights under this callsign
Pilot: Anonymous 12234 (12234)
Aircraft: AIRBUS A319
(A319)
More flights by this aircraft type
Origin: KPDX Portland Intl
United States
Destination: KDEN Denver Intl
United States
More flights between these airports :: More routes between these airports
Route: +WHAMY4 IMB J15 BOI J163 PIH/N0452F390 J163 OCS GWEDO KAILE2
File this flight plan on PilotEdge
Remarks:
Altitude:
(Current/Filed)
37,000ft
Speed:
(Current/Filed)
452kts
Departed: 06-Oct-18 03:33 PM
Arrived: 06-Oct-18 05:41 PM
Distance/Time
Traveled:
859nm/2:07
Distance/Time
To Go:
Arrived

Flight Plot

Page will automatically refresh every two minutes.

Flight plan parsing failed; only flown route is shown


Map Options




Map Legend


Flown Route
Filed Route
Departure Airport
Arrival Airport
Navaid (VOR, NDB)
Fix

Horizontal Profiles

Position Reports

Time Latitude Longitude Heading Altitude Ground
Speed
06-Oct-18 15:14 45.589842 -122.590575 225 38ft 0kts
06-Oct-18 15:15 45.589842 -122.590575 225 38ft 0kts
06-Oct-18 15:16 45.589842 -122.590575 225 38ft 0kts
06-Oct-18 15:17 45.589842 -122.590575 225 38ft 0kts
06-Oct-18 15:18 45.589842 -122.590575 225 38ft 0kts
06-Oct-18 15:19 45.589842 -122.590575 225 38ft 0kts
06-Oct-18 15:20 45.589842 -122.590575 225 38ft 0kts
06-Oct-18 15:21 45.589842 -122.590575 225 38ft 0kts
06-Oct-18 15:22 45.589842 -122.590575 225 38ft 0kts
06-Oct-18 15:23 45.589842 -122.590575 225 38ft 0kts
06-Oct-18 15:24 45.589842 -122.590575 225 38ft 0kts
06-Oct-18 15:25 45.589897 -122.590498 226 38ft 2kts
06-Oct-18 15:26 45.590314 -122.590009 185 38ft 2kts
06-Oct-18 15:27 45.590646 -122.590318 117 38ft 0kts
06-Oct-18 15:28 45.590676 -122.590400 117 38ft 0kts
06-Oct-18 15:29 45.590676 -122.590400 117 38ft 0kts
06-Oct-18 15:30 45.590617 -122.590243 117 38ft 4kts
06-Oct-18 15:31 45.589837 -122.586106 119 38ft 14kts
06-Oct-18 15:32 45.587448 -122.579935 117 38ft 20kts
06-Oct-18 15:33 45.584390 -122.572150 118 38ft 24kts
06-Oct-18 15:34 45.583478 -122.567015 339 38ft 10kts
06-Oct-18 15:35 45.594719 -122.595507 297 514ft 156kts
06-Oct-18 15:36 45.613488 -122.655793 288 2863ft 202kts
06-Oct-18 15:37 45.644319 -122.738563 301 5736ft 262kts
06-Oct-18 15:38 45.670717 -122.831740 264 9261ft 288kts
06-Oct-18 15:39 45.623690 -122.922918 190 11813ft 348kts
06-Oct-18 15:40 45.534140 -122.871195 120 14081ft 378kts
06-Oct-18 15:41 45.492191 -122.735539 106 16707ft 392kts
06-Oct-18 15:42 45.448141 -122.592135 106 19158ft 409kts
06-Oct-18 15:43 45.403013 -122.447836 105 21312ft 424kts
06-Oct-18 15:44 45.357097 -122.301881 105 23192ft 439kts
06-Oct-18 15:45 45.306616 -122.142446 104 25010ft 453kts
06-Oct-18 15:46 45.253955 -121.977415 103 26676ft 466kts
06-Oct-18 15:47 45.210838 -121.809590 98 28144ft 473kts
06-Oct-18 15:48 45.166028 -121.633328 98 29619ft 485kts
06-Oct-18 15:49 45.119344 -121.453224 97 30998ft 494kts
06-Oct-18 15:50 45.072590 -121.274037 98 32049ft 506kts
06-Oct-18 15:51 45.023513 -121.086869 100 33232ft 512kts
06-Oct-18 15:52 44.974785 -120.903356 104 35118ft 495kts
06-Oct-18 15:53 44.926526 -120.723954 104 36282ft 492kts
06-Oct-18 15:54 44.879896 -120.551922 104 37116ft 492kts
06-Oct-18 15:55 44.830877 -120.372688 104 37136ft 492kts
06-Oct-18 15:56 44.783057 -120.197587 104 37136ft 492kts
06-Oct-18 15:57 44.733763 -120.018655 104 37125ft 492kts
06-Oct-18 15:58 44.684187 -119.840199 104 37111ft 492kts
06-Oct-18 15:59 44.634095 -119.662143 105 37109ft 496kts
06-Oct-18 16:00 44.582005 -119.484002 105 37108ft 496kts
06-Oct-18 16:01 44.530389 -119.308385 106 37103ft 496kts
06-Oct-18 16:02 44.477705 -119.130001 106 37106ft 497kts
06-Oct-18 16:03 44.424945 -118.952737 107 37110ft 495kts
06-Oct-18 16:04 44.372178 -118.776695 109 37110ft 488kts
06-Oct-18 16:05 44.319862 -118.604199 109 37108ft 487kts
06-Oct-18 16:06 44.266973 -118.430552 109 37108ft 487kts
06-Oct-18 16:07 44.215694 -118.262980 110 37105ft 488kts
06-Oct-18 16:08 44.162723 -118.091014 110 37084ft 488kts
06-Oct-18 16:09 44.109302 -117.918965 110 37058ft 488kts
06-Oct-18 16:10 44.055436 -117.746646 110 37034ft 489kts
06-Oct-18 16:11 44.001220 -117.574359 110 37009ft 490kts
06-Oct-18 16:12 43.946834 -117.402676 110 37000ft 489kts
06-Oct-18 16:13 43.892960 -117.233480 111 36993ft 490kts
06-Oct-18 16:14 43.838060 -117.063614 111 37000ft 490kts
06-Oct-18 16:15 43.783020 -116.893085 113 36998ft 485kts
06-Oct-18 16:16 43.728051 -116.724372 113 36985ft 483kts
06-Oct-18 16:17 43.672936 -116.555999 113 36974ft 483kts
06-Oct-18 16:18 43.618716 -116.391382 113 36972ft 483kts
06-Oct-18 16:19 43.564523 -116.224950 111 36964ft 483kts
06-Oct-18 16:20 43.527518 -116.048698 102 36948ft 482kts
06-Oct-18 16:21 43.496104 -115.870988 102 36946ft 482kts
06-Oct-18 16:22 43.464158 -115.692736 102 36957ft 483kts
06-Oct-18 16:23 43.431805 -115.514030 103 36967ft 483kts
06-Oct-18 16:24 43.399340 -115.336429 103 36965ft 483kts
06-Oct-18 16:25 43.366561 -115.158247 104 36951ft 483kts
06-Oct-18 16:26 43.333341 -114.978965 106 36946ft 485kts
06-Oct-18 16:27 43.299742 -114.800994 106 36945ft 482kts
06-Oct-18 16:28 43.266233 -114.624801 106 36947ft 482kts
06-Oct-18 16:29 43.232324 -114.447821 106 36960ft 481kts
06-Oct-18 16:30 43.198446 -114.272377 107 36967ft 481kts
06-Oct-18 16:31 43.164252 -114.096757 107 36968ft 480kts
06-Oct-18 16:32 43.129666 -113.921062 107 36964ft 480kts
06-Oct-18 16:33 43.094867 -113.745853 107 36958ft 480kts
06-Oct-18 16:34 43.059816 -113.570931 107 36953ft 480kts
06-Oct-18 16:35 43.024399 -113.395721 107 36950ft 481kts
06-Oct-18 16:36 42.989320 -113.223316 108 36959ft 480kts
06-Oct-18 16:37 42.953445 -113.048860 108 36966ft 480kts
06-Oct-18 16:38 42.917409 -112.875079 109 36971ft 478kts
06-Oct-18 16:39 42.881307 -112.704513 111 36970ft 474kts
06-Oct-18 16:40 42.833218 -112.540104 118 36971ft 469kts
06-Oct-18 16:41 42.779869 -112.379400 118 36971ft 469kts
06-Oct-18 16:42 42.727324 -112.221414 119 36970ft 469kts
06-Oct-18 16:43 42.673742 -112.061544 119 37529ft 468kts
06-Oct-18 16:44 42.619863 -111.901930 119 38156ft 468kts
06-Oct-18 16:45 42.565974 -111.743182 119 38731ft 466kts
06-Oct-18 16:46 42.511975 -111.585107 119 38967ft 464kts
06-Oct-18 16:47 42.457865 -111.427571 119 38968ft 464kts
06-Oct-18 16:48 42.403664 -111.270373 120 38967ft 463kts
06-Oct-18 16:49 42.349616 -111.114459 120 38969ft 463kts
06-Oct-18 16:50 42.295833 -110.960398 120 38968ft 464kts
06-Oct-18 16:51 42.241534 -110.805871 121 38968ft 465kts
06-Oct-18 16:52 42.186096 -110.648984 121 38955ft 465kts
06-Oct-18 16:53 42.130686 -110.493003 121 38944ft 465kts
06-Oct-18 16:54 42.074959 -110.336986 121 38940ft 465kts
06-Oct-18 16:55 42.018988 -110.180632 121 38954ft 466kts
06-Oct-18 16:56 41.962503 -110.024163 121 38966ft 466kts
06-Oct-18 16:57 41.906349 -109.869547 121 38969ft 467kts
06-Oct-18 16:58 41.866790 -109.761950 122 38968ft 466kts
06-Oct-18 16:59 41.803217 -109.589228 121 38957ft 466kts
06-Oct-18 17:00 41.755572 -109.460007 121 38947ft 466kts
06-Oct-18 17:01 41.689268 -109.280882 122 38939ft 466kts
06-Oct-18 17:02 41.641516 -109.152513 122 38941ft 466kts
06-Oct-18 17:03 41.575256 -108.970557 119 38942ft 474kts
06-Oct-18 17:04 41.534979 -108.834316 118 38942ft 476kts
06-Oct-18 17:05 41.485478 -108.671181 119 38942ft 475kts
06-Oct-18 17:06 41.436180 -108.510872 119 38942ft 475kts
06-Oct-18 17:07 41.386495 -108.350384 119 38943ft 475kts
06-Oct-18 17:08 41.336560 -108.192925 123 38944ft 470kts
06-Oct-18 17:09 41.275954 -108.039770 125 38954ft 468kts
06-Oct-18 17:10 41.215651 -107.887179 124 38966ft 469kts
06-Oct-18 17:11 41.155322 -107.734479 124 38969ft 469kts
06-Oct-18 17:12 41.095098 -107.582801 124 38961ft 469kts
06-Oct-18 17:13 41.034615 -107.431258 124 38948ft 467kts
06-Oct-18 17:14 40.975585 -107.283829 125 38951ft 465kts
06-Oct-18 17:15 40.915183 -107.133605 125 38966ft 465kts
06-Oct-18 17:16 40.861013 -107.000560 125 38717ft 464kts
06-Oct-18 17:17 40.800495 -106.852200 126 37868ft 461kts
06-Oct-18 17:18 40.739730 -106.703837 126 35300ft 467kts
06-Oct-18 17:19 40.677935 -106.553612 125 32212ft 469kts
06-Oct-18 17:20 40.616624 -106.405186 124 29359ft 458kts
06-Oct-18 17:21 40.558049 -106.263839 124 26486ft 446kts
06-Oct-18 17:22 40.499204 -106.122605 123 23794ft 436kts
06-Oct-18 17:23 40.447141 -105.984867 114 22993ft 408kts
06-Oct-18 17:24 40.421349 -105.842812 106 21265ft 399kts
06-Oct-18 17:25 40.399297 -105.703560 105 19276ft 387kts
06-Oct-18 17:26 40.377607 -105.568010 100 17506ft 375kts
06-Oct-18 17:27 40.358539 -105.447669 105 17406ft 309kts
06-Oct-18 17:28 40.344006 -105.343859 103 16777ft 295kts
06-Oct-18 17:29 40.330037 -105.241475 103 15554ft 288kts
06-Oct-18 17:30 40.315984 -105.139761 102 14309ft 282kts
06-Oct-18 17:31 40.302072 -105.039737 103 13051ft 279kts
06-Oct-18 17:32 40.289419 -104.949146 105 12973ft 238kts
06-Oct-18 17:33 40.276912 -104.862488 105 11890ft 245kts
06-Oct-18 17:34 40.264135 -104.776190 109 10936ft 236kts
06-Oct-18 17:35 40.234419 -104.703679 146 10263ft 224kts
06-Oct-18 17:36 40.177967 -104.683940 180 9985ft 211kts
06-Oct-18 17:37 40.119418 -104.684342 179 9645ft 208kts
06-Oct-18 17:38 40.062834 -104.684781 179 8599ft 193kts
06-Oct-18 17:39 40.012439 -104.685408 179 7584ft 170kts
06-Oct-18 17:40 39.972375 -104.685904 178 6797ft 131kts
06-Oct-18 17:41 39.935082 -104.686567 178 6098ft 135kts
06-Oct-18 17:42 39.899203 -104.686869 178 5428ft 133kts
06-Oct-18 17:43 39.877387 -104.686366 154 5328ft 34kts
06-Oct-18 17:44 39.874795 -104.684930 180 5328ft 13kts
06-Oct-18 17:45 39.870271 -104.684977 179 5328ft 18kts
06-Oct-18 17:46 39.864855 -104.685009 179 5328ft 20kts
06-Oct-18 17:47 39.860353 -104.684370 92 5328ft 10kts
06-Oct-18 17:48 39.860489 -104.679634 136 5328ft 10kts
06-Oct-18 17:49 39.859408 -104.677912 180 5328ft 0kts
06-Oct-18 17:50 39.859408 -104.677912 180 5328ft 0kts

Navigation Log

Ident Type
Flight plan parsing failed, navigation log unavailable